Time;durP1;ratioP1;P1;durP2;ratioP2;P2;SDS_P1;SDS_P2;PMS_P1;PMS_P2;Temp;Humidity;BMP_temperature;BMP_pressure;BME280_temperature;BME280_humidity;BME280_pressure;Samples;Min_cycle;Max_cycle;Signal;HPM_P1;HPM_P2
2021/12/02 00:00:36;;;;;;;0.60;0.60;;;5.80;99.90;;;;;;5041998;28;20025;-67
2021/12/02 07:17:56;;;;;;;1.52;1.42;;;4.30;99.90;;;;;;4212170;28;20134;-67
2021/12/02 07:20:24;;;;;;;1.85;1.75;;;4.30;99.90;;;;;;5009168;28;20041;-66
2021/12/02 07:22:50;;;;;;;1.85;1.38;;;4.20;99.90;;;;;;5028888;28;20034;-67
2021/12/02 07:25:16;;;;;;;3.17;1.70;;;4.20;99.90;;;;;;5030304;28;20098;-67
2021/12/02 07:27:42;;;;;;;1.88;1.73;;;4.20;99.90;;;;;;5026806;28;20033;-66
2021/12/02 07:30:08;;;;;;;3.53;1.60;;;4.10;99.90;;;;;;5033007;28;20025;-67
2021/12/02 07:32:40;;;;;;;1.08;1.08;;;4.10;99.90;;;;;;5026284;28;20096;-66
2021/12/02 07:35:15;;;;;;;1.92;1.48;;;4.10;99.90;;;;;;5026902;28;20021;-67
2021/12/02 07:37:47;;;;;;;1.42;1.33;;;4.10;99.90;;;;;;5026995;28;20042;-68
2021/12/02 07:40:14;;;;;;;1.50;1.40;;;4.10;99.90;;;;;;5027034;28;20405;-66
2021/12/02 07:42:39;;;;;;;1.30;1.20;;;4.10;99.90;;;;;;5026082;28;20100;-66
2021/12/02 07:45:07;;;;;;;1.35;1.25;;;4.10;99.90;;;;;;5013440;28;20589;-67
2021/12/02 07:47:34;;;;;;;1.77;1.67;;;4.20;99.90;;;;;;5028165;28;20026;-67
2021/12/02 07:50:00;;;;;;;1.30;1.20;;;4.20;99.90;;;;;;5030617;28;20017;-67
2021/12/02 07:52:26;;;;;;;1.23;1.13;;;4.20;99.90;;;;;;5034218;28;20053;-67
2021/12/02 07:54:55;;;;;;;1.95;1.20;;;4.20;99.90;;;;;;5028913;28;20036;-67
2021/12/02 07:57:21;;;;;;;1.30;1.20;;;4.20;99.90;;;;;;5024993;28;20021;-67
2021/12/02 07:59:52;;;;;;;1.00;1.00;;;4.20;99.90;;;;;;5020788;28;20144;-66
2021/12/02 08:02:18;;;;;;;1.33;1.20;;;4.30;99.90;;;;;;5017951;28;20085;-67
2021/12/02 08:04:44;;;;;;;1.50;1.08;;;4.30;99.90;;;;;;5027734;28;20029;-67
2021/12/02 08:07:10;;;;;;;1.50;1.30;;;4.30;99.90;;;;;;5009905;28;20509;-67
2021/12/02 08:09:36;;;;;;;1.30;1.20;;;4.30;99.90;;;;;;5022541;28;20541;-66
2021/12/02 08:12:03;;;;;;;2.17;1.20;;;4.30;99.90;;;;;;5021102;28;20109;-67
2021/12/02 08:14:29;;;;;;;1.30;1.25;;;4.40;99.90;;;;;;5020853;28;20132;-67
2021/12/02 08:16:55;;;;;;;0.95;0.93;;;4.30;99.90;;;;;;5023853;28;20040;-66
2021/12/02 08:19:20;;;;;;;2.20;0.98;;;4.40;99.90;;;;;;5036940;28;20370;-67
2021/12/02 08:21:47;;;;;;;1.48;1.20;;;4.40;99.90;;;;;;5020094;28;20071;-67
2021/12/02 08:24:12;;;;;;;1.38;0.90;;;4.40;99.90;;;;;;5041104;28;20059;-67
2021/12/02 08:26:38;;;;;;;1.15;1.08;;;4.40;99.90;;;;;;5038842;28;20032;-67
2021/12/02 08:29:05;;;;;;;1.15;1.10;;;4.40;99.90;;;;;;5035078;28;20116;-67
2021/12/02 08:31:33;;;;;;;1.60;1.50;;;4.40;99.90;;;;;;5026418;28;20037;-67
2021/12/02 08:33:58;;;;;;;2.80;1.80;;;4.50;99.90;;;;;;5023178;28;20037;-68
2021/12/02 08:36:28;;;;;;;1.05;1.00;;;4.50;99.90;;;;;;5035808;28;20040;-68
2021/12/02 08:38:54;;;;;;;0.98;0.98;;;4.50;99.90;;;;;;5036317;28;20132;-68
2021/12/02 08:41:20;;;;;;;1.95;0.98;;;4.40;99.90;;;;;;5036382;28;20163;-68
2021/12/02 08:43:47;;;;;;;0.95;0.95;;;4.50;99.90;;;;;;5036420;28;20068;-68
2021/12/02 08:46:14;;;;;;;1.73;1.20;;;4.50;99.90;;;;;;5036033;28;20060;-68
2021/12/02 08:48:40;;;;;;;1.30;1.20;;;4.50;99.90;;;;;;5017931;28;20032;-67
2021/12/02 08:51:05;;;;;;;2.00;1.15;;;4.60;99.90;;;;;;5037575;28;20028;-67
2021/12/02 08:53:31;;;;;;;4.25;1.10;;;4.60;99.90;;;;;;5045271;28;20025;-68
2021/12/02 08:55:56;;;;;;;1.70;1.23;;;4.60;99.90;;;;;;5040190;28;20075;-67
2021/12/02 08:58:22;;;;;;;2.53;1.45;;;4.60;99.90;;;;;;5040990;28;20428;-68
2021/12/02 09:00:48;;;;;;;1.05;1.05;;;4.60;99.90;;;;;;5041625;28;20083;-67
2021/12/02 09:03:15;;;;;;;1.00;0.93;;;4.60;99.90;;;;;;5043599;28;20044;-68
2021/12/02 09:05:42;;;;;;;1.67;1.13;;;4.60;99.90;;;;;;5043430;28;20040;-67
2021/12/02 09:08:08;;;;;;;1.88;1.25;;;4.60;99.90;;;;;;5039755;28;20112;-67
2021/12/02 09:10:35;;;;;;;0.90;0.90;;;4.60;99.90;;;;;;5021615;28;20044;-67
2021/12/02 09:13:07;;;;;;;1.95;1.20;;;4.60;99.90;;;;;;5025108;28;20033;-67
2021/12/02 09:15:33;;;;;;;3.55;1.10;;;4.60;99.90;;;;;;5024298;28;20060;-68
2021/12/02 09:17:58;;;;;;;3.17;1.52;;;4.60;99.90;;;;;;5035982;28;20065;-68
2021/12/02 09:20:24;;;;;;;1.20;0.95;;;4.60;99.90;;;;;;5036210;28;20438;-67
2021/12/02 09:22:50;;;;;;;2.83;0.82;;;4.70;99.90;;;;;;5037948;28;20029;-68
2021/12/02 09:25:16;;;;;;;0.80;0.80;;;4.80;99.90;;;;;;5025722;28;20033;-68
2021/12/02 09:27:43;;;;;;;0.80;0.80;;;4.80;99.90;;;;;;5037945;28;20037;-68
2021/12/02 09:30:09;;;;;;;3.10;1.08;;;4.90;99.90;;;;;;5023924;28;20048;-67
2021/12/02 09:32:36;;;;;;;0.90;0.90;;;4.90;99.90;;;;;;5028681;28;20041;-68
2021/12/02 09:35:03;;;;;;;0.80;0.80;;;4.90;99.90;;;;;;5022154;28;20839;-67
2021/12/02 09:37:29;;;;;;;1.48;1.05;;;4.90;99.90;;;;;;5047587;28;20028;-67
2021/12/02 09:39:54;;;;;;;0.70;0.70;;;4.90;99.90;;;;;;5036750;28;20037;-67
2021/12/02 09:42:20;;;;;;;2.75;0.90;;;4.90;99.90;;;;;;5040693;28;20044;-67
2021/12/02 09:44:48;;;;;;;3.38;1.35;;;4.90;99.90;;;;;;5025505;28;20100;-68
2021/12/02 09:47:16;;;;;;;1.13;0.90;;;4.90;99.90;;;;;;5037429;28;20029;-68
2021/12/02 09:49:42;;;;;;;0.97;0.97;;;4.90;99.90;;;;;;5033788;28;20167;-68
2021/12/02 09:52:12;;;;;;;1.00;1.00;;;4.90;99.90;;;;;;5030579;28;20030;-68
2021/12/02 09:54:42;;;;;;;5.32;1.40;;;4.90;99.90;;;;;;5036209;28;20017;-68
2021/12/02 09:57:12;;;;;;;1.95;1.10;;;4.90;99.90;;;;;;5034181;28;20518;-68
2021/12/02 09:59:49;;;;;;;2.17;1.00;;;4.90;99.90;;;;;;5038209;28;20017;-68
2021/12/02 10:02:18;;;;;;;0.70;0.70;;;4.90;99.90;;;;;;5022999;28;20052;-68
2021/12/02 10:07:25;;;;;;;1.15;0.90;;;4.90;99.90;;;;;;5034241;28;20025;-68
2021/12/02 10:10:09;;;;;;;0.90;0.90;;;4.90;99.90;;;;;;5024700;28;20120;-68
2021/12/02 10:12:37;;;;;;;0.70;0.70;;;4.90;99.90;;;;;;5023986;28;20086;-68
2021/12/02 10:15:13;;;;;;;0.85;0.85;;;4.90;99.90;;;;;;5030886;28;20412;-69
2021/12/02 10:17:43;;;;;;;1.08;0.90;;;4.90;99.90;;;;;;5039956;28;20045;-68
2021/12/02 10:20:32;;;;;;;1.08;0.80;;;4.90;99.90;;;;;;5052396;28;20032;-68
2021/12/02 10:23:19;;;;;;;1.02;0.90;;;5.00;99.90;;;;;;5055951;28;20852;-68
2021/12/02 10:25:58;;;;;;;1.27;1.17;;;5.00;99.90;;;;;;5048731;28;20090;-68
2021/12/02 10:28:26;;;;;;;2.35;1.08;;;5.10;99.90;;;;;;5051936;28;20096;-68
2021/12/02 10:31:04;;;;;;;1.17;0.90;;;5.10;99.90;;;;;;5052213;28;20033;-69
2021/12/02 10:33:46;;;;;;;1.00;1.00;;;5.10;99.90;;;;;;5046917;28;20115;-67
2021/12/02 10:36:39;;;;;;;1.70;1.23;;;5.30;99.90;;;;;;5049459;28;20382;-66
2021/12/02 10:39:20;;;;;;;1.02;0.93;;;5.20;99.90;;;;;;5051819;28;20079;-67
2021/12/02 10:42:01;;;;;;;1.60;0.82;;;5.20;99.90;;;;;;5051036;28;20389;-67
2021/12/02 10:44:33;;;;;;;0.90;0.90;;;5.20;99.90;;;;;;5045874;28;20060;-67
2021/12/02 10:47:01;;;;;;;1.00;0.80;;;5.20;99.90;;;;;;5045048;28;20028;-67
2021/12/02 10:49:32;;;;;;;1.40;1.00;;;5.20;99.90;;;;;;5047779;28;20665;-68
2021/12/02 10:52:01;;;;;;;2.40;1.08;;;5.20;99.90;;;;;;5054380;28;20380;-68
2021/12/02 10:54:33;;;;;;;1.58;1.00;;;5.30;99.90;;;;;;5047859;28;20026;-67
2021/12/02 10:57:11;;;;;;;1.10;1.00;;;5.30;99.90;;;;;;5044402;28;20032;-67
2021/12/02 10:59:50;;;;;;;2.53;1.30;;;5.20;99.90;;;;;;5051255;28;20036;-67
2021/12/02 11:02:30;;;;;;;1.10;1.10;;;5.20;99.90;;;;;;5049361;28;20036;-67
2021/12/02 11:05:07;;;;;;;2.42;1.20;;;5.20;99.90;;;;;;5049528;28;20056;-67
2021/12/02 11:07:35;;;;;;;0.70;0.70;;;5.20;99.90;;;;;;5045209;28;20036;-68
2021/12/02 11:10:04;;;;;;;1.88;1.10;;;5.20;99.90;;;;;;5044131;28;20427;-69
2021/12/02 11:12:39;;;;;;;0.95;0.85;;;5.20;99.90;;;;;;5051879;28;20107;-68
2021/12/02 11:15:16;;;;;;;1.55;0.88;;;5.30;99.90;;;;;;5051518;28;20040;-68
2021/12/02 11:17:45;;;;;;;1.92;1.25;;;5.30;99.90;;;;;;5042585;28;20490;-68
2021/12/02 11:20:34;;;;;;;0.95;0.95;;;5.20;99.90;;;;;;5039838;28;20079;-68
2021/12/02 11:23:01;;;;;;;2.13;1.00;;;5.30;99.90;;;;;;5046586;28;20111;-68
2021/12/02 11:25:27;;;;;;;1.88;0.93;;;5.30;99.90;;;;;;5048149;28;20075;-68
2021/12/02 11:27:54;;;;;;;0.93;0.80;;;5.30;99.90;;;;;;5041069;28;20040;-68
2021/12/02 11:30:22;;;;;;;3.17;1.88;;;5.30;99.90;;;;;;5046075;28;20071;-68
2021/12/02 11:33:01;;;;;;;0.90;0.80;;;5.30;99.90;;;;;;5051804;28;20021;-68
2021/12/02 11:35:36;;;;;;;4.45;1.00;;;5.30;99.90;;;;;;5050434;28;20025;-68
2021/12/02 11:38:26;;;;;;;0.90;0.90;;;5.20;99.90;;;;;;5050085;28;20056;-67
2021/12/02 11:40:57;;;;;;;2.22;1.10;;;5.20;99.90;;;;;;5046447;28;20021;-67
2021/12/02 11:43:27;;;;;;;0.77;0.77;;;5.20;99.90;;;;;;5026234;28;20497;-68
2021/12/02 11:45:56;;;;;;;1.00;0.80;;;5.20;99.90;;;;;;5046832;28;20116;-68
2021/12/02 11:48:23;;;;;;;;;;;5.20;99.90;;;;;;5050773;28;20545;-68
2021/12/02 11:50:51;;;;;;;3.28;0.90;;;5.20;99.90;;;;;;5044645;28;20392;-67
2021/12/02 11:53:23;;;;;;;1.58;1.30;;;5.20;99.90;;;;;;5027810;28;20134;-67
2021/12/02 11:55:53;;;;;;;2.53;1.10;;;5.30;99.90;;;;;;5045603;28;20025;-68
2021/12/02 11:58:19;;;;;;;2.47;1.17;;;5.30;99.90;;;;;;5046904;28;20059;-67
2021/12/02 12:00:47;;;;;;;4.65;1.25;;;5.40;99.90;;;;;;5048016;28;20060;-67
2021/12/02 12:03:24;;;;;;;2.58;1.00;;;5.40;99.90;;;;;;5049068;28;20078;-67
2021/12/02 12:05:57;;;;;;;0.88;0.85;;;5.50;99.90;;;;;;5047434;28;20066;-67
2021/12/02 12:08:41;;;;;;;1.13;0.77;;;5.50;99.90;;;;;;5043622;28;20033;-68
2021/12/02 12:11:23;;;;;;;1.45;0.95;;;5.50;99.90;;;;;;5048896;28;20037;-67
2021/12/02 12:13:55;;;;;;;1.00;1.00;;;5.50;99.90;;;;;;5038900;28;20036;-67
2021/12/02 12:16:26;;;;;;;1.75;1.00;;;5.50;99.90;;;;;;5029149;28;20111;-68
2021/12/02 12:18:54;;;;;;;1.52;0.88;;;5.40;99.90;;;;;;5025179;28;20030;-68
2021/12/02 12:21:36;;;;;;;1.70;1.00;;;5.40;99.90;;;;;;5027168;28;20030;-68
2021/12/02 12:24:02;;;;;;;1.85;1.02;;;5.30;99.90;;;;;;5018420;28;22509;-67
2021/12/02 12:26:37;;;;;;;1.08;1.08;;;5.30;99.90;;;;;;5026079;28;20747;-67
2021/12/02 12:29:06;;;;;;;2.55;1.00;;;5.20;99.90;;;;;;5026350;28;20029;-68
2021/12/02 12:34:32;;;;;;;2.67;0.90;;;5.00;99.90;;;;;;5034887;28;20385;-68
2021/12/02 12:40:13;;;;;;;1.30;1.20;;;5.00;99.90;;;;;;5025540;28;20036;-68
2021/12/02 12:42:51;;;;;;;1.13;0.98;;;5.10;99.90;;;;;;5026245;28;21156;-68
2021/12/02 12:45:31;;;;;;;;;;;5.10;99.90;;;;;;5028830;28;20036;-68
2021/12/02 12:48:00;;;;;;;1.70;1.00;;;5.10;99.90;;;;;;5022557;28;19944;-68
2021/12/02 12:50:37;;;;;;;5.88;3.90;;;5.10;99.90;;;;;;5023880;28;20112;-68
2021/12/02 12:53:24;;;;;;;1.40;1.30;;;5.10;99.90;;;;;;5024243;28;20053;-68
2021/12/02 12:55:52;;;;;;;1.65;1.30;;;5.10;99.90;;;;;;5025043;28;20455;-67
2021/12/02 12:58:22;;;;;;;1.33;1.23;;;5.10;99.90;;;;;;5028439;28;20013;-66
2021/12/02 13:00:58;;;;;;;2.08;0.95;;;5.10;99.90;;;;;;5017265;28;20138;-66
2021/12/02 13:03:42;;;;;;;1.20;1.10;;;5.10;99.90;;;;;;5020273;28;20390;-67
2021/12/02 13:06:27;;;;;;;1.83;0.93;;;5.10;99.90;;;;;;5023903;28;20428;-67
2021/12/02 13:08:58;;;;;;;1.92;1.10;;;5.10;99.90;;;;;;5026035;28;20026;-67
2021/12/02 13:11:26;;;;;;;2.65;1.10;;;5.10;99.90;;;;;;5028650;28;20694;-67
2021/12/02 13:13:53;;;;;;;0.88;0.88;;;5.10;99.90;;;;;;5007797;28;20116;-67
2021/12/02 13:16:20;;;;;;;0.60;0.60;;;4.80;99.90;;;;;;5025692;28;20091;-67
2021/12/02 13:19:00;;;;;;;0.70;0.70;;;4.40;99.90;;;;;;5034650;28;20049;-67
2021/12/02 13:21:32;;;;;;;0.60;0.60;;;4.00;99.90;;;;;;5011909;28;20115;-66
2021/12/02 13:24:24;;;;;;;0.60;0.60;;;3.70;99.90;;;;;;5028187;28;20458;-67
2021/12/02 13:26:53;;;;;;;1.65;0.60;;;3.60;99.90;;;;;;5013581;28;20445;-67
2021/12/02 13:29:23;;;;;;;;;;;3.40;99.90;;;;;;5044140;28;20171;-67
2021/12/02 13:31:57;;;;;;;0.60;0.60;;;3.40;99.90;;;;;;5031098;28;19913;-67
2021/12/02 13:34:26;;;;;;;0.50;0.50;;;3.40;99.90;;;;;;5036881;28;20048;-67
2021/12/02 13:36:52;;;;;;;0.60;0.60;;;3.30;99.90;;;;;;5038535;28;20555;-68
2021/12/02 13:39:21;;;;;;;0.70;0.70;;;3.30;99.90;;;;;;5022317;28;21681;-67
2021/12/02 13:41:55;;;;;;;0.50;0.50;;;3.30;99.90;;;;;;5032289;28;20033;-67
2021/12/02 13:44:25;;;;;;;0.50;0.50;;;3.20;99.90;;;;;;5020077;28;20029;-67
2021/12/02 13:47:05;;;;;;;0.63;0.63;;;3.20;99.90;;;;;;5014061;28;20041;-67
2021/12/02 13:49:39;;;;;;;0.55;0.55;;;3.20;99.90;;;;;;5024922;28;20075;-68
2021/12/02 13:55:01;;;;;;;0.50;0.50;;;3.30;99.90;;;;;;5023300;28;20030;-67
2021/12/02 13:57:55;;;;;;;1.60;0.60;;;3.30;99.90;;;;;;5015805;28;20022;-67
2021/12/02 14:00:25;;;;;;;0.60;0.60;;;3.30;99.90;;;;;;5015078;28;20018;-67
2021/12/02 14:02:59;;;;;;;1.00;0.60;;;3.20;99.90;;;;;;5017498;28;20029;-66
2021/12/02 14:05:27;;;;;;;0.60;0.60;;;3.30;99.90;;;;;;5018272;28;20021;-68
2021/12/02 14:08:00;;;;;;;1.23;1.20;;;3.40;99.90;;;;;;5017844;28;20040;-67
2021/12/02 14:10:31;;;;;;;0.80;0.80;;;3.40;99.90;;;;;;5015894;28;20034;-67
2021/12/02 14:13:00;;;;;;;0.65;0.65;;;3.40;99.90;;;;;;5020204;28;20021;-67
2021/12/02 14:15:25;;;;;;;;;;;3.40;99.90;;;;;;5016530;28;20112;-68
2021/12/02 14:17:52;;;;;;;0.63;0.63;;;3.50;99.90;;;;;;5022707;28;20012;-68
2021/12/02 14:20:20;;;;;;;4.18;0.82;;;3.50;99.90;;;;;;5004949;28;20104;-68
2021/12/02 14:22:55;;;;;;;1.35;0.75;;;3.50;99.90;;;;;;5025313;28;20079;-68
2021/12/02 14:25:24;;;;;;;0.90;0.90;;;3.50;99.90;;;;;;5022720;28;20037;-67
2021/12/02 14:28:15;;;;;;;0.82;0.82;;;3.50;99.90;;;;;;5006537;28;20442;-67
2021/12/02 14:30:42;;;;;;;3.65;1.00;;;3.50;99.90;;;;;;5028948;28;20116;-66
2021/12/02 14:33:09;;;;;;;0.95;0.70;;;3.40;99.90;;;;;;5027857;28;20045;-66
2021/12/02 14:36:01;;;;;;;0.80;0.80;;;3.40;99.90;;;;;;5008651;28;20064;-66
2021/12/02 14:38:33;;;;;;;0.57;0.57;;;3.40;99.90;;;;;;4999360;28;20192;-67
2021/12/02 14:41:26;;;;;;;0.80;0.80;;;3.40;99.90;;;;;;5022024;28;20013;-69
2021/12/02 14:43:58;;;;;;;0.60;0.60;;;3.40;99.90;;;;;;5005361;28;20030;-67
2021/12/02 14:46:36;;;;;;;0.65;0.65;;;3.40;99.90;;;;;;5022867;28;20368;-67
2021/12/02 14:49:11;;;;;;;0.80;0.80;;;3.40;99.90;;;;;;5029493;28;20433;-67
2021/12/02 14:51:53;;;;;;;1.95;0.80;;;3.40;99.90;;;;;;5023083;28;20033;-67
2021/12/02 14:54:26;;;;;;;0.90;0.90;;;3.40;99.90;;;;;;5022705;28;20045;-67
2021/12/02 14:56:51;;;;;;;2.15;1.38;;;3.40;99.90;;;;;;5019347;28;20498;-67
2021/12/02 14:59:20;;;;;;;1.88;0.95;;;3.30;99.90;;;;;;5020204;28;20082;-67
2021/12/02 15:02:24;;;;;;;1.10;1.00;;;3.40;99.90;;;;;;5019647;28;20569;-67
2021/12/02 15:04:52;;;;;;;0.98;0.95;;;3.30;99.90;;;;;;4980431;28;20057;-67
2021/12/02 15:07:21;;;;;;;1.17;1.08;;;3.30;99.90;;;;;;5027239;28;20034;-67
2021/12/02 15:09:49;;;;;;;2.58;1.33;;;3.30;99.90;;;;;;5020346;28;20040;-67
2021/12/02 15:12:30;;;;;;;1.42;1.33;;;3.40;99.90;;;;;;5021390;28;20036;-68
2021/12/02 15:14:58;;;;;;;1.40;1.30;;;3.30;99.90;;;;;;5024150;28;20036;-68
2021/12/02 15:17:36;;;;;;;1.15;1.10;;;3.30;99.90;;;;;;5016856;28;20568;-68
2021/12/02 15:20:23;;;;;;;1.15;1.15;;;3.30;99.90;;;;;;5020202;28;20022;-67
2021/12/02 15:22:50;;;;;;;1.00;1.00;;;3.30;99.90;;;;;;5019954;28;20084;-67
2021/12/02 15:25:34;;;;;;;1.23;1.23;;;3.30;99.90;;;;;;5020147;28;20037;-68
2021/12/02 15:28:03;;;;;;;1.15;1.10;;;3.30;99.90;;;;;;5024457;28;20029;-67
2021/12/02 15:30:31;;;;;;;;;;;3.30;99.90;;;;;;5024805;28;20055;-67
2021/12/02 15:32:56;;;;;;;1.00;1.00;;;3.30;99.90;;;;;;5021784;28;20042;-67
2021/12/02 15:35:22;;;;;;;0.95;0.95;;;3.30;99.90;;;;;;5022615;28;20676;-67
2021/12/02 15:37:48;;;;;;;1.20;1.20;;;3.40;99.90;;;;;;5024796;28;20360;-67
2021/12/02 15:40:14;;;;;;;2.88;1.38;;;3.40;99.90;;;;;;5026408;28;20028;-67
2021/12/02 15:42:40;;;;;;;2.58;1.25;;;3.40;99.90;;;;;;5006616;28;20379;-67
2021/12/02 15:45:09;;;;;;;1.05;1.05;;;3.30;99.90;;;;;;5024829;28;20079;-67
2021/12/02 15:47:36;;;;;;;1.13;1.10;;;3.30;99.90;;;;;;5028502;28;20029;-67
2021/12/02 15:50:05;;;;;;;1.50;1.40;;;3.30;99.90;;;;;;5024289;28;20409;-67
2021/12/02 15:52:32;;;;;;;1.13;1.13;;;3.20;99.90;;;;;;5028195;28;20371;-68
2021/12/02 15:54:59;;;;;;;1.40;1.40;;;3.20;99.90;;;;;;5020915;28;20166;-66
2021/12/02 15:57:25;;;;;;;1.35;1.35;;;3.20;99.90;;;;;;5024689;28;20075;-67
2021/12/02 15:59:52;;;;;;;1.38;1.33;;;3.20;99.90;;;;;;5022440;28;20493;-68
2021/12/02 16:05:00;;;;;;;1.92;1.60;;;3.30;99.90;;;;;;5022136;28;20037;-68
2021/12/02 16:07:33;;;;;;;2.17;1.95;;;3.30;99.90;;;;;;5021263;28;20025;-68
2021/12/02 16:12:40;;;;;;;3.83;2.17;;;3.30;99.90;;;;;;5023395;28;20491;-67
2021/12/02 16:15:09;;;;;;;3.20;2.42;;;3.20;99.90;;;;;;5019131;28;20099;-68
2021/12/02 16:17:37;;;;;;;4.05;2.17;;;3.20;99.90;;;;;;5039049;28;20395;-67
2021/12/02 16:20:07;;;;;;;2.47;2.28;;;3.10;99.90;;;;;;5047511;28;20012;-68
2021/12/02 16:22:34;;;;;;;3.10;2.22;;;3.10;99.90;;;;;;5041877;28;20081;-68
2021/12/02 16:25:00;;;;;;;4.28;2.63;;;3.10;99.90;;;;;;5029899;28;20481;-68
2021/12/02 16:27:27;;;;;;;3.40;2.60;;;3.10;99.90;;;;;;5046325;28;20524;-68
2021/12/02 16:29:53;;;;;;;4.88;2.55;;;3.00;99.90;;;;;;5051272;28;20029;-68
2021/12/02 16:32:20;;;;;;;3.47;2.88;;;3.00;99.90;;;;;;5044524;28;20041;-67
2021/12/02 16:34:45;;;;;;;2.63;2.40;;;2.90;99.90;;;;;;5045675;28;20033;-68
2021/12/02 16:37:11;;;;;;;3.33;2.38;;;2.90;99.90;;;;;;5052688;28;20630;-68
2021/12/02 16:39:37;;;;;;;4.15;2.80;;;2.90;99.90;;;;;;5047122;28;20029;-68
2021/12/02 16:42:04;;;;;;;3.08;2.33;;;2.90;99.90;;;;;;5047575;28;20454;-68
2021/12/02 16:44:31;;;;;;;4.00;2.92;;;2.90;99.90;;;;;;5048381;28;20032;-68
2021/12/02 16:46:57;;;;;;;3.75;3.15;;;2.80;99.90;;;;;;5043799;28;20029;-68
2021/12/02 16:49:25;;;;;;;3.38;2.55;;;2.80;99.90;;;;;;5048323;28;20025;-68
2021/12/02 16:51:51;;;;;;;4.88;3.28;;;2.80;99.90;;;;;;5043422;28;20117;-68
2021/12/02 16:54:18;;;;;;;3.72;2.90;;;2.80;99.90;;;;;;5048942;28;20043;-68
2021/12/02 16:56:44;;;;;;;3.35;3.05;;;2.80;99.90;;;;;;5054175;28;20107;-68
2021/12/02 16:59:10;;;;;;;3.50;3.05;;;2.80;99.90;;;;;;5044686;28;20121;-68
2021/12/02 17:01:36;;;;;;;4.00;2.80;;;2.80;99.90;;;;;;5039481;28;20036;-68
2021/12/02 17:04:02;;;;;;;4.47;2.92;;;2.80;99.90;;;;;;5050064;28;20052;-68
2021/12/02 17:06:29;;;;;;;5.00;4.03;;;2.80;99.90;;;;;;5031054;28;20029;-68
2021/12/02 17:08:57;;;;;;;3.13;2.80;;;2.80;99.90;;;;;;5045021;28;20028;-67
2021/12/02 17:11:23;;;;;;;3.47;2.88;;;2.80;99.90;;;;;;5041974;28;21217;-68
2021/12/02 17:13:49;;;;;;;4.55;3.33;;;2.70;99.90;;;;;;5058363;28;20025;-68
2021/12/02 17:16:15;;;;;;;5.30;3.17;;;2.80;99.90;;;;;;5046888;28;20389;-68
2021/12/02 17:18:42;;;;;;;4.10;3.15;;;2.80;99.90;;;;;;5024499;28;20134;-68
2021/12/02 17:21:08;;;;;;;3.27;2.97;;;2.70;99.90;;;;;;5032658;28;20954;-68
2021/12/02 17:23:35;;;;;;;3.72;3.00;;;2.80;99.90;;;;;;5015414;28;20029;-68
2021/12/02 17:26:01;;;;;;;4.43;3.28;;;2.80;99.90;;;;;;5029534;28;20044;-68
2021/12/02 17:28:26;;;;;;;3.70;3.20;;;2.80;99.90;;;;;;5022775;28;20037;-68
2021/12/02 17:30:52;;;;;;;3.97;3.35;;;2.80;99.90;;;;;;5008809;28;20519;-68
2021/12/02 17:33:18;;;;;;;5.38;3.70;;;2.80;99.90;;;;;;5033182;28;20560;-68
2021/12/02 17:35:44;;;;;;;5.55;3.22;;;2.70;99.90;;;;;;5021537;28;20030;-68
2021/12/02 17:38:10;;;;;;;3.20;2.90;;;2.70;99.90;;;;;;5034101;28;20383;-68
2021/12/02 17:40:47;;;;;;;3.63;2.63;;;2.70;99.90;;;;;;5023323;28;20242;-68
2021/12/02 17:43:16;;;;;;;3.67;2.70;;;2.70;99.90;;;;;;5017319;28;20036;-68
2021/12/02 17:45:42;;;;;;;3.40;2.40;;;2.70;99.90;;;;;;5011485;28;20040;-68
2021/12/02 17:48:08;;;;;;;5.25;3.10;;;2.70;99.90;;;;;;5029577;28;20030;-68
2021/12/02 17:50:37;;;;;;;2.97;2.63;;;2.60;99.90;;;;;;5006294;28;20025;-67
2021/12/02 17:53:03;;;;;;;3.45;3.15;;;2.60;99.90;;;;;;5003009;28;20056;-68
2021/12/02 17:55:29;;;;;;;5.07;3.28;;;2.60;99.90;;;;;;5020942;28;20056;-68
2021/12/02 17:57:55;;;;;;;4.85;2.85;;;2.60;99.90;;;;;;5020863;28;20067;-67
2021/12/02 18:00:22;;;;;;;4.18;3.42;;;2.50;99.90;;;;;;5022759;28;20037;-68
2021/12/02 18:02:47;;;;;;;4.57;3.38;;;2.40;99.90;;;;;;5003807;28;20422;-68
2021/12/02 18:05:13;;;;;;;7.47;4.30;;;2.40;99.90;;;;;;5006995;28;20072;-68
2021/12/02 18:07:39;;;;;;;4.63;3.15;;;2.40;99.90;;;;;;5025015;28;20529;-68
2021/12/02 18:10:07;;;;;;;4.75;3.65;;;2.40;99.90;;;;;;5013487;28;20034;-68
2021/12/02 18:12:34;;;;;;;4.82;3.40;;;2.40;99.90;;;;;;5032909;28;20445;-68
2021/12/02 18:15:02;;;;;;;8.10;3.45;;;2.40;99.90;;;;;;5015158;28;20036;-68
2021/12/02 18:17:28;;;;;;;4.22;3.22;;;2.40;99.90;;;;;;5030103;28;20494;-68
2021/12/02 18:19:53;;;;;;;6.28;3.13;;;2.30;99.90;;;;;;5042066;28;20071;-67
2021/12/02 18:22:20;;;;;;;4.93;3.72;;;2.40;99.90;;;;;;5045795;28;20029;-68
2021/12/02 18:24:48;;;;;;;3.35;3.00;;;2.30;99.90;;;;;;5032719;28;20029;-69
2021/12/02 18:27:20;;;;;;;3.15;2.78;;;2.30;99.90;;;;;;5047506;28;20032;-68
2021/12/02 18:29:47;;;;;;;4.78;3.05;;;2.30;99.90;;;;;;5049368;28;20074;-68
2021/12/02 18:32:14;;;;;;;6.57;4.32;;;2.30;99.90;;;;;;5042983;28;20042;-68
2021/12/02 18:34:40;;;;;;;3.63;3.17;;;2.20;99.90;;;;;;5046968;28;20107;-68
2021/12/02 18:37:07;;;;;;;3.45;3.15;;;2.20;99.90;;;;;;5044113;28;20032;-68
2021/12/02 18:39:34;;;;;;;4.18;2.90;;;2.20;99.90;;;;;;5046956;28;20025;-70
2021/12/02 18:41:59;;;;;;;3.55;3.13;;;2.20;99.90;;;;;;5042367;28;20030;-67
2021/12/02 18:44:25;;;;;;;4.35;2.40;;;2.20;99.90;;;;;;5046434;28;20044;-68
2021/12/02 18:46:51;;;;;;;5.57;3.08;;;2.20;99.90;;;;;;5042369;28;20401;-68
2021/12/02 18:49:17;;;;;;;3.53;3.22;;;2.20;99.90;;;;;;5054256;28;20391;-68
2021/12/02 18:51:44;;;;;;;7.15;2.95;;;2.20;99.90;;;;;;5041420;28;20033;-68
2021/12/02 18:54:11;;;;;;;3.65;2.92;;;2.10;99.90;;;;;;5045094;28;20028;-68
2021/12/02 18:56:37;;;;;;;3.88;3.17;;;2.10;99.90;;;;;;5030880;28;20047;-68
2021/12/02 18:59:04;;;;;;;3.47;2.60;;;2.10;99.90;;;;;;5046957;28;20029;-68
2021/12/02 19:01:34;;;;;;;3.90;2.83;;;2.10;99.90;;;;;;5040036;28;20534;-68
2021/12/02 19:04:01;;;;;;;4.80;3.10;;;2.10;99.90;;;;;;5040874;28;20448;-68
2021/12/02 19:27:56;;;;;;;3.40;1.73;;;1.80;99.90;;;;;;5022258;28;20032;-68
2021/12/02 19:30:23;;;;;;;2.20;1.93;;;1.90;99.90;;;;;;5020229;28;20958;-68
2021/12/02 19:32:49;;;;;;;2.30;2.10;;;1.90;99.90;;;;;;5025758;28;20272;-67
2021/12/02 19:35:14;;;;;;;3.45;2.28;;;1.90;99.90;;;;;;5017799;28;20043;-68
2021/12/02 19:37:40;;;;;;;3.65;2.72;;;1.80;99.90;;;;;;5020047;28;20029;-67
2021/12/02 19:40:07;;;;;;;2.83;2.42;;;1.80;99.90;;;;;;5029795;28;20021;-68
2021/12/02 19:42:33;;;;;;;5.35;2.35;;;1.80;99.90;;;;;;5025368;28;20510;-68
2021/12/02 19:44:59;;;;;;;3.60;2.90;;;1.70;99.90;;;;;;5017211;28;20181;-67
2021/12/02 19:47:26;;;;;;;3.60;2.70;;;1.70;99.90;;;;;;5018158;28;20029;-67
2021/12/02 19:49:52;;;;;;;2.40;2.20;;;1.80;99.90;;;;;;5027080;28;20025;-68
2021/12/02 19:52:18;;;;;;;3.83;2.80;;;1.80;99.90;;;;;;5036799;28;20509;-67
2021/12/02 19:54:44;;;;;;;4.45;2.70;;;1.80;99.90;;;;;;5020526;28;20030;-68
2021/12/02 19:57:11;;;;;;;4.40;2.78;;;1.80;99.90;;;;;;5037726;28;20104;-67
2021/12/02 19:59:37;;;;;;;4.00;3.15;;;1.80;99.90;;;;;;5021790;28;20024;-67
2021/12/02 20:02:03;;;;;;;4.35;2.90;;;1.80;99.90;;;;;;5021678;28;20577;-67
2021/12/02 20:04:29;;;;;;;5.85;3.10;;;1.80;99.90;;;;;;5024203;28;20104;-68
2021/12/02 20:06:55;;;;;;;4.53;3.05;;;1.80;99.90;;;;;;5018670;28;20108;-67
2021/12/02 20:09:21;;;;;;;4.50;2.80;;;1.90;99.90;;;;;;5020562;28;20079;-67
2021/12/02 20:11:46;;;;;;;3.63;2.83;;;1.90;99.90;;;;;;5020847;28;20029;-68
2021/12/02 20:14:12;;;;;;;4.18;2.53;;;1.90;99.90;;;;;;5021540;28;20033;-67
2021/12/02 20:16:51;;;;;;;4.22;2.85;;;1.90;99.90;;;;;;5024082;28;20051;-67
2021/12/02 20:19:26;;;;;;;3.40;2.50;;;1.80;99.90;;;;;;5041890;28;20029;-67
2021/12/02 20:21:51;;;;;;;3.33;2.47;;;1.80;99.90;;;;;;5023307;28;20525;-66
2021/12/02 20:24:17;;;;;;;4.45;3.08;;;1.80;99.90;;;;;;5039899;28;20033;-66
2021/12/02 20:26:45;;;;;;;5.25;3.05;;;1.90;99.90;;;;;;5038478;28;20044;-66
2021/12/02 20:29:11;;;;;;;4.82;3.15;;;1.80;99.90;;;;;;5023885;28;20401;-67
2021/12/02 20:31:36;;;;;;;6.05;3.42;;;1.80;99.90;;;;;;5041809;28;20041;-66
2021/12/02 20:34:03;;;;;;;4.88;3.33;;;1.80;99.90;;;;;;5041013;28;20028;-67
2021/12/02 20:36:30;;;;;;;5.95;3.55;;;1.80;99.90;;;;;;5039968;28;20021;-67
2021/12/02 20:38:57;;;;;;;4.00;2.63;;;1.80;99.90;;;;;;5023350;28;20035;-67
2021/12/02 20:41:24;;;;;;;3.35;2.75;;;1.80;99.90;;;;;;5039228;28;20029;-67
2021/12/02 20:43:53;;;;;;;3.40;3.10;;;1.80;99.90;;;;;;5022949;28;20036;-67
2021/12/02 20:46:28;;;;;;;3.22;2.92;;;1.80;99.90;;;;;;5039039;28;20035;-67
2021/12/02 20:48:56;;;;;;;6.50;3.53;;;1.80;99.90;;;;;;5040104;28;20060;-67
2021/12/02 20:51:24;;;;;;;3.30;2.93;;;1.80;99.90;;;;;;5044690;28;20032;-68
2021/12/02 20:53:50;;;;;;;3.50;2.55;;;1.80;99.90;;;;;;5030093;28;20378;-68
2021/12/02 20:56:19;;;;;;;4.20;3.08;;;1.70;99.90;;;;;;5041259;28;20127;-67
2021/12/02 20:58:48;;;;;;;6.22;3.35;;;1.70;99.90;;;;;;5041013;28;20035;-67
2021/12/02 21:01:14;;;;;;;3.63;3.17;;;1.70;99.90;;;;;;5021010;28;21248;-67
2021/12/02 21:03:40;;;;;;;6.10;2.83;;;1.60;99.90;;;;;;5036107;28;20041;-68